sensor_id;sensor_type;location;lat;lon;timestamp;P1;durP1;ratioP1;P2;durP2;ratioP2
21661;SDS011;10992;48.170;8.596;2023-12-29T00:01:30;7.85;;;5.15;;
21661;SDS011;10992;48.170;8.596;2023-12-29T00:03:57;8.02;;;6.47;;
21661;SDS011;10992;48.170;8.596;2023-12-29T00:06:24;7.20;;;5.55;;
21661;SDS011;10992;48.170;8.596;2023-12-29T00:08:51;8.15;;;6.43;;
21661;SDS011;10992;48.170;8.596;2023-12-29T00:11:21;8.45;;;5.72;;
21661;SDS011;10992;48.170;8.596;2023-12-29T00:13:49;7.20;;;5.25;;
21661;SDS011;10992;48.170;8.596;2023-12-29T00:16:15;6.80;;;5.60;;
21661;SDS011;10992;48.170;8.596;2023-12-29T00:18:42;6.93;;;5.28;;
21661;SDS011;10992;48.170;8.596;2023-12-29T00:21:10;8.25;;;5.88;;
21661;SDS011;10992;48.170;8.596;2023-12-29T00:23:37;8.38;;;6.03;;
21661;SDS011;10992;48.170;8.596;2023-12-29T00:26:04;7.20;;;5.35;;
21661;SDS011;10992;48.170;8.596;2023-12-29T00:28:30;7.13;;;5.78;;
21661;SDS011;10992;48.170;8.596;2023-12-29T00:30:57;7.40;;;5.65;;
21661;SDS011;10992;48.170;8.596;2023-12-29T00:33:29;9.32;;;5.82;;
21661;SDS011;10992;48.170;8.596;2023-12-29T00:35:58;7.15;;;4.95;;
21661;SDS011;10992;48.170;8.596;2023-12-29T00:38:28;8.23;;;6.30;;
21661;SDS011;10992;48.170;8.596;2023-12-29T00:40:55;9.32;;;6.25;;
21661;SDS011;10992;48.170;8.596;2023-12-29T00:43:22;8.88;;;6.80;;
21661;SDS011;10992;48.170;8.596;2023-12-29T00:45:49;9.48;;;6.35;;
21661;SDS011;10992;48.170;8.596;2023-12-29T00:48:16;8.73;;;6.88;;
21661;SDS011;10992;48.170;8.596;2023-12-29T00:50:45;11.07;;;6.93;;
21661;SDS011;10992;48.170;8.596;2023-12-29T00:53:12;8.82;;;6.82;;
21661;SDS011;10992;48.170;8.596;2023-12-29T00:55:39;8.45;;;6.50;;
21661;SDS011;10992;48.170;8.596;2023-12-29T00:58:06;8.32;;;6.78;;
21661;SDS011;10992;48.170;8.596;2023-12-29T01:00:33;9.70;;;7.13;;
21661;SDS011;10992;48.170;8.596;2023-12-29T01:03:00;10.35;;;6.88;;
21661;SDS011;10992;48.170;8.596;2023-12-29T01:05:27;10.05;;;7.05;;
21661;SDS011;10992;48.170;8.596;2023-12-29T01:07:54;8.35;;;6.82;;
21661;SDS011;10992;48.170;8.596;2023-12-29T01:10:21;9.13;;;7.20;;
21661;SDS011;10992;48.170;8.596;2023-12-29T01:12:48;10.20;;;7.35;;
21661;SDS011;10992;48.170;8.596;2023-12-29T01:15:15;9.90;;;7.82;;
21661;SDS011;10992;48.170;8.596;2023-12-29T01:17:42;10.68;;;8.38;;
21661;SDS011;10992;48.170;8.596;2023-12-29T01:20:10;9.80;;;7.88;;
21661;SDS011;10992;48.170;8.596;2023-12-29T01:22:37;12.10;;;7.70;;
21661;SDS011;10992;48.170;8.596;2023-12-29T01:25:04;11.20;;;7.78;;
21661;SDS011;10992;48.170;8.596;2023-12-29T01:27:33;10.05;;;7.32;;
21661;SDS011;10992;48.170;8.596;2023-12-29T01:30:00;10.70;;;8.02;;
21661;SDS011;10992;48.170;8.596;2023-12-29T01:32:27;10.20;;;7.47;;
21661;SDS011;10992;48.170;8.596;2023-12-29T01:34:54;9.40;;;6.75;;
21661;SDS011;10992;48.170;8.596;2023-12-29T01:37:21;10.70;;;7.38;;
21661;SDS011;10992;48.170;8.596;2023-12-29T01:39:47;12.30;;;7.97;;
21661;SDS011;10992;48.170;8.596;2023-12-29T01:42:14;9.75;;;7.25;;
21661;SDS011;10992;48.170;8.596;2023-12-29T01:44:41;8.38;;;6.90;;
21661;SDS011;10992;48.170;8.596;2023-12-29T01:47:15;10.90;;;6.10;;
21661;SDS011;10992;48.170;8.596;2023-12-29T01:49:46;10.73;;;6.10;;
21661;SDS011;10992;48.170;8.596;2023-12-29T01:52:15;8.65;;;6.15;;
21661;SDS011;10992;48.170;8.596;2023-12-29T01:54:44;9.45;;;5.45;;
21661;SDS011;10992;48.170;8.596;2023-12-29T01:57:13;7.80;;;5.68;;
21661;SDS011;10992;48.170;8.596;2023-12-29T01:59:41;10.88;;;5.57;;
21661;SDS011;10992;48.170;8.596;2023-12-29T02:02:08;6.97;;;4.75;;
21661;SDS011;10992;48.170;8.596;2023-12-29T02:04:36;5.65;;;4.25;;
21661;SDS011;10992;48.170;8.596;2023-12-29T02:07:04;6.32;;;4.50;;
21661;SDS011;10992;48.170;8.596;2023-12-29T02:09:31;7.30;;;4.35;;
21661;SDS011;10992;48.170;8.596;2023-12-29T02:12:00;6.43;;;4.35;;
21661;SDS011;10992;48.170;8.596;2023-12-29T02:14:27;6.50;;;4.00;;
21661;SDS011;10992;48.170;8.596;2023-12-29T02:17:02;5.25;;;4.22;;
21661;SDS011;10992;48.170;8.596;2023-12-29T02:19:41;7.00;;;4.35;;
21661;SDS011;10992;48.170;8.596;2023-12-29T02:22:12;4.97;;;3.88;;
21661;SDS011;10992;48.170;8.596;2023-12-29T02:24:43;5.57;;;4.15;;
21661;SDS011;10992;48.170;8.596;2023-12-29T02:27:21;5.28;;;3.83;;
21661;SDS011;10992;48.170;8.596;2023-12-29T02:30:02;4.57;;;3.60;;
21661;SDS011;10992;48.170;8.596;2023-12-29T02:32:43;5.28;;;3.10;;
21661;SDS011;10992;48.170;8.596;2023-12-29T02:35:21;5.55;;;3.47;;
21661;SDS011;10992;48.170;8.596;2023-12-29T02:37:52;4.40;;;3.13;;
21661;SDS011;10992;48.170;8.596;2023-12-29T02:40:20;4.65;;;3.25;;
21661;SDS011;10992;48.170;8.596;2023-12-29T02:42:48;4.20;;;2.95;;
21661;SDS011;10992;48.170;8.596;2023-12-29T02:45:15;3.80;;;2.63;;
21661;SDS011;10992;48.170;8.596;2023-12-29T02:47:43;7.05;;;2.55;;
21661;SDS011;10992;48.170;8.596;2023-12-29T02:50:11;3.35;;;2.50;;
21661;SDS011;10992;48.170;8.596;2023-12-29T02:52:38;3.53;;;2.63;;
21661;SDS011;10992;48.170;8.596;2023-12-29T02:55:05;3.28;;;2.58;;
21661;SDS011;10992;48.170;8.596;2023-12-29T02:57:32;3.60;;;2.92;;
21661;SDS011;10992;48.170;8.596;2023-12-29T03:00:00;4.20;;;2.85;;
21661;SDS011;10992;48.170;8.596;2023-12-29T03:02:28;2.80;;;2.47;;
21661;SDS011;10992;48.170;8.596;2023-12-29T03:04:54;3.70;;;3.08;;
21661;SDS011;10992;48.170;8.596;2023-12-29T03:07:21;3.38;;;3.05;;
21661;SDS011;10992;48.170;8.596;2023-12-29T03:09:48;3.15;;;2.85;;
21661;SDS011;10992;48.170;8.596;2023-12-29T03:12:15;5.00;;;2.85;;
21661;SDS011;10992;48.170;8.596;2023-12-29T03:14:43;5.28;;;3.47;;
21661;SDS011;10992;48.170;8.596;2023-12-29T03:17:11;5.15;;;3.33;;
21661;SDS011;10992;48.170;8.596;2023-12-29T03:19:38;4.55;;;3.55;;
21661;SDS011;10992;48.170;8.596;2023-12-29T03:22:05;4.35;;;3.15;;
21661;SDS011;10992;48.170;8.596;2023-12-29T03:24:32;4.18;;;2.97;;
21661;SDS011;10992;48.170;8.596;2023-12-29T03:26:59;5.35;;;3.50;;
21661;SDS011;10992;48.170;8.596;2023-12-29T03:29:26;5.95;;;3.47;;
21661;SDS011;10992;48.170;8.596;2023-12-29T03:31:53;4.65;;;3.65;;
21661;SDS011;10992;48.170;8.596;2023-12-29T03:34:20;4.93;;;3.65;;
21661;SDS011;10992;48.170;8.596;2023-12-29T03:36:48;3.80;;;3.22;;
21661;SDS011;10992;48.170;8.596;2023-12-29T03:39:14;3.72;;;3.17;;
21661;SDS011;10992;48.170;8.596;2023-12-29T03:41:41;6.45;;;3.53;;
21661;SDS011;10992;48.170;8.596;2023-12-29T03:44:08;5.03;;;3.50;;
21661;SDS011;10992;48.170;8.596;2023-12-29T03:46:35;6.35;;;3.72;;
21661;SDS011;10992;48.170;8.596;2023-12-29T03:49:02;5.00;;;3.90;;
21661;SDS011;10992;48.170;8.596;2023-12-29T03:51:29;4.13;;;3.60;;
21661;SDS011;10992;48.170;8.596;2023-12-29T03:53:56;4.28;;;3.63;;
21661;SDS011;10992;48.170;8.596;2023-12-29T03:56:24;5.25;;;3.60;;
21661;SDS011;10992;48.170;8.596;2023-12-29T03:58:52;4.35;;;3.60;;
21661;SDS011;10992;48.170;8.596;2023-12-29T04:01:18;5.70;;;3.85;;
21661;SDS011;10992;48.170;8.596;2023-12-29T04:03:46;5.20;;;4.40;;
21661;SDS011;10992;48.170;8.596;2023-12-29T04:06:13;4.20;;;3.70;;
21661;SDS011;10992;48.170;8.596;2023-12-29T04:08:40;5.63;;;3.72;;
21661;SDS011;10992;48.170;8.596;2023-12-29T04:11:07;4.78;;;4.30;;
21661;SDS011;10992;48.170;8.596;2023-12-29T04:13:34;4.55;;;3.97;;
21661;SDS011;10992;48.170;8.596;2023-12-29T04:16:01;4.80;;;3.67;;
21661;SDS011;10992;48.170;8.596;2023-12-29T04:18:28;4.80;;;4.05;;
21661;SDS011;10992;48.170;8.596;2023-12-29T04:20:55;5.78;;;3.80;;
21661;SDS011;10992;48.170;8.596;2023-12-29T04:23:22;4.30;;;3.45;;
21661;SDS011;10992;48.170;8.596;2023-12-29T04:25:49;4.18;;;3.47;;
21661;SDS011;10992;48.170;8.596;2023-12-29T04:28:16;5.13;;;3.97;;
21661;SDS011;10992;48.170;8.596;2023-12-29T04:30:43;6.25;;;3.55;;
21661;SDS011;10992;48.170;8.596;2023-12-29T04:33:11;3.85;;;3.33;;
21661;SDS011;10992;48.170;8.596;2023-12-29T04:35:37;4.60;;;3.30;;
21661;SDS011;10992;48.170;8.596;2023-12-29T04:38:04;3.33;;;3.00;;
21661;SDS011;10992;48.170;8.596;2023-12-29T04:40:33;4.65;;;3.13;;
21661;SDS011;10992;48.170;8.596;2023-12-29T04:43:00;3.63;;;3.15;;
21661;SDS011;10992;48.170;8.596;2023-12-29T04:45:27;3.45;;;3.03;;
21661;SDS011;10992;48.170;8.596;2023-12-29T04:47:55;4.38;;;3.17;;
21661;SDS011;10992;48.170;8.596;2023-12-29T04:50:22;6.30;;;3.22;;
21661;SDS011;10992;48.170;8.596;2023-12-29T04:52:49;4.85;;;3.47;;
21661;SDS011;10992;48.170;8.596;2023-12-29T04:55:16;3.60;;;3.17;;
21661;SDS011;10992;48.170;8.596;2023-12-29T04:57:43;3.95;;;3.35;;
21661;SDS011;10992;48.170;8.596;2023-12-29T05:00:11;4.40;;;3.03;;
21661;SDS011;10992;48.170;8.596;2023-12-29T05:02:38;3.80;;;3.15;;
21661;SDS011;10992;48.170;8.596;2023-12-29T05:05:05;4.63;;;3.08;;
21661;SDS011;10992;48.170;8.596;2023-12-29T05:07:32;3.38;;;2.92;;
21661;SDS011;10992;48.170;8.596;2023-12-29T05:09:59;4.32;;;2.92;;
21661;SDS011;10992;48.170;8.596;2023-12-29T05:12:26;4.15;;;2.67;;
21661;SDS011;10992;48.170;8.596;2023-12-29T05:14:53;3.05;;;2.75;;
21661;SDS011;10992;48.170;8.596;2023-12-29T05:17:20;3.53;;;2.60;;
21661;SDS011;10992;48.170;8.596;2023-12-29T05:19:47;4.55;;;2.65;;
21661;SDS011;10992;48.170;8.596;2023-12-29T05:22:14;2.42;;;2.17;;
21661;SDS011;10992;48.170;8.596;2023-12-29T05:24:44;3.38;;;2.72;;
21661;SDS011;10992;48.170;8.596;2023-12-29T05:27:11;3.22;;;2.55;;
21661;SDS011;10992;48.170;8.596;2023-12-29T05:29:38;3.20;;;2.55;;
21661;SDS011;10992;48.170;8.596;2023-12-29T05:32:05;3.97;;;2.40;;
21661;SDS011;10992;48.170;8.596;2023-12-29T05:34:32;3.50;;;2.63;;
21661;SDS011;10992;48.170;8.596;2023-12-29T05:37:00;4.35;;;2.67;;
21661;SDS011;10992;48.170;8.596;2023-12-29T05:39:26;3.15;;;2.25;;
21661;SDS011;10992;48.170;8.596;2023-12-29T05:41:53;4.55;;;3.03;;
21661;SDS011;10992;48.170;8.596;2023-12-29T05:44:20;6.22;;;3.10;;
21661;SDS011;10992;48.170;8.596;2023-12-29T05:46:47;3.63;;;2.70;;
21661;SDS011;10992;48.170;8.596;2023-12-29T05:49:14;3.90;;;2.67;;
21661;SDS011;10992;48.170;8.596;2023-12-29T05:51:41;2.88;;;2.30;;
21661;SDS011;10992;48.170;8.596;2023-12-29T05:54:09;4.20;;;2.60;;
21661;SDS011;10992;48.170;8.596;2023-12-29T05:56:36;2.78;;;2.38;;
21661;SDS011;10992;48.170;8.596;2023-12-29T05:59:03;4.20;;;2.63;;
21661;SDS011;10992;48.170;8.596;2023-12-29T06:01:29;3.30;;;2.35;;
21661;SDS011;10992;48.170;8.596;2023-12-29T06:03:56;2.22;;;1.90;;
21661;SDS011;10992;48.170;8.596;2023-12-29T06:06:23;2.70;;;2.30;;
21661;SDS011;10992;48.170;8.596;2023-12-29T06:08:50;2.50;;;2.20;;
21661;SDS011;10992;48.170;8.596;2023-12-29T06:11:17;3.42;;;2.00;;
21661;SDS011;10992;48.170;8.596;2023-12-29T06:13:43;3.20;;;2.00;;
21661;SDS011;10992;48.170;8.596;2023-12-29T06:16:16;3.65;;;1.90;;
21661;SDS011;10992;48.170;8.596;2023-12-29T06:18:44;2.28;;;1.83;;
21661;SDS011;10992;48.170;8.596;2023-12-29T06:21:11;2.75;;;1.80;;
21661;SDS011;10992;48.170;8.596;2023-12-29T06:23:38;3.25;;;1.83;;
21661;SDS011;10992;48.170;8.596;2023-12-29T06:26:05;2.78;;;2.05;;
21661;SDS011;10992;48.170;8.596;2023-12-29T06:28:31;3.47;;;1.83;;
21661;SDS011;10992;48.170;8.596;2023-12-29T06:30:59;3.53;;;2.05;;
21661;SDS011;10992;48.170;8.596;2023-12-29T06:33:26;2.33;;;1.92;;
21661;SDS011;10992;48.170;8.596;2023-12-29T06:35:53;2.28;;;1.70;;
21661;SDS011;10992;48.170;8.596;2023-12-29T06:38:20;1.95;;;1.67;;
21661;SDS011;10992;48.170;8.596;2023-12-29T06:40:46;3.20;;;1.92;;
21661;SDS011;10992;48.170;8.596;2023-12-29T06:43:13;3.65;;;2.03;;
21661;SDS011;10992;48.170;8.596;2023-12-29T06:45:41;2.40;;;1.70;;
21661;SDS011;10992;48.170;8.596;2023-12-29T06:48:08;2.15;;;1.90;;
21661;SDS011;10992;48.170;8.596;2023-12-29T06:50:35;2.13;;;1.80;;
21661;SDS011;10992;48.170;8.596;2023-12-29T06:53:02;1.90;;;1.70;;
21661;SDS011;10992;48.170;8.596;2023-12-29T06:55:29;1.90;;;1.70;;
21661;SDS011;10992;48.170;8.596;2023-12-29T06:57:56;2.47;;;1.70;;
21661;SDS011;10992;48.170;8.596;2023-12-29T07:00:23;4.25;;;3.50;;
21661;SDS011;10992;48.170;8.596;2023-12-29T07:02:51;7.40;;;4.13;;
21661;SDS011;10992;48.170;8.596;2023-12-29T07:05:18;5.10;;;4.38;;
21661;SDS011;10992;48.170;8.596;2023-12-29T07:07:45;5.30;;;4.20;;
21661;SDS011;10992;48.170;8.596;2023-12-29T07:10:12;6.13;;;4.45;;
21661;SDS011;10992;48.170;8.596;2023-12-29T07:12:40;6.00;;;4.65;;
21661;SDS011;10992;48.170;8.596;2023-12-29T07:15:07;7.72;;;5.00;;
21661;SDS011;10992;48.170;8.596;2023-12-29T07:17:35;5.40;;;4.65;;
21661;SDS011;10992;48.170;8.596;2023-12-29T07:20:02;7.05;;;5.28;;
21661;SDS011;10992;48.170;8.596;2023-12-29T07:22:29;8.40;;;5.88;;
21661;SDS011;10992;48.170;8.596;2023-12-29T07:24:57;8.88;;;5.72;;
21661;SDS011;10992;48.170;8.596;2023-12-29T07:27:24;7.50;;;5.88;;
21661;SDS011;10992;48.170;8.596;2023-12-29T07:29:51;8.13;;;6.55;;
21661;SDS011;10992;48.170;8.596;2023-12-29T07:32:17;7.25;;;5.93;;
21661;SDS011;10992;48.170;8.596;2023-12-29T07:34:44;9.52;;;6.88;;
21661;SDS011;10992;48.170;8.596;2023-12-29T07:37:12;9.15;;;7.25;;
21661;SDS011;10992;48.170;8.596;2023-12-29T07:39:38;9.02;;;7.10;;
21661;SDS011;10992;48.170;8.596;2023-12-29T07:42:05;8.05;;;6.95;;
21661;SDS011;10992;48.170;8.596;2023-12-29T07:44:32;8.27;;;6.80;;
21661;SDS011;10992;48.170;8.596;2023-12-29T07:46:59;9.93;;;7.65;;
21661;SDS011;10992;48.170;8.596;2023-12-29T07:49:26;10.27;;;8.00;;
21661;SDS011;10992;48.170;8.596;2023-12-29T07:51:53;10.68;;;7.30;;
21661;SDS011;10992;48.170;8.596;2023-12-29T07:54:21;10.43;;;7.70;;
21661;SDS011;10992;48.170;8.596;2023-12-29T07:56:48;11.32;;;8.23;;
21661;SDS011;10992;48.170;8.596;2023-12-29T07:59:17;14.13;;;7.82;;
21661;SDS011;10992;48.170;8.596;2023-12-29T08:01:43;10.98;;;8.38;;
21661;SDS011;10992;48.170;8.596;2023-12-29T08:04:11;9.90;;;8.23;;
21661;SDS011;10992;48.170;8.596;2023-12-29T08:06:41;11.95;;;9.43;;
21661;SDS011;10992;48.170;8.596;2023-12-29T08:09:08;13.07;;;9.23;;
21661;SDS011;10992;48.170;8.596;2023-12-29T08:11:35;12.43;;;10.20;;
21661;SDS011;10992;48.170;8.596;2023-12-29T08:14:02;13.85;;;10.43;;
21661;SDS011;10992;48.170;8.596;2023-12-29T08:16:28;13.60;;;10.60;;
21661;SDS011;10992;48.170;8.596;2023-12-29T08:18:55;12.82;;;9.57;;
21661;SDS011;10992;48.170;8.596;2023-12-29T08:21:23;13.30;;;10.32;;
21661;SDS011;10992;48.170;8.596;2023-12-29T08:23:50;12.50;;;10.30;;
21661;SDS011;10992;48.170;8.596;2023-12-29T08:26:17;11.90;;;9.23;;
21661;SDS011;10992;48.170;8.596;2023-12-29T08:28:44;11.43;;;9.15;;
21661;SDS011;10992;48.170;8.596;2023-12-29T08:31:11;15.85;;;9.93;;
21661;SDS011;10992;48.170;8.596;2023-12-29T08:33:39;13.15;;;10.48;;
21661;SDS011;10992;48.170;8.596;2023-12-29T08:36:06;11.90;;;9.00;;
21661;SDS011;10992;48.170;8.596;2023-12-29T08:38:33;11.27;;;8.57;;
21661;SDS011;10992;48.170;8.596;2023-12-29T08:41:00;10.68;;;8.68;;
21661;SDS011;10992;48.170;8.596;2023-12-29T08:43:26;11.55;;;8.68;;
21661;SDS011;10992;48.170;8.596;2023-12-29T08:45:53;9.32;;;7.45;;
21661;SDS011;10992;48.170;8.596;2023-12-29T08:48:21;12.07;;;7.97;;
21661;SDS011;10992;48.170;8.596;2023-12-29T08:50:48;9.57;;;7.57;;
21661;SDS011;10992;48.170;8.596;2023-12-29T08:53:16;8.25;;;6.82;;
21661;SDS011;10992;48.170;8.596;2023-12-29T08:55:43;8.25;;;7.30;;
21661;SDS011;10992;48.170;8.596;2023-12-29T08:58:11;8.50;;;6.85;;
21661;SDS011;10992;48.170;8.596;2023-12-29T09:00:38;7.43;;;6.63;;
21661;SDS011;10992;48.170;8.596;2023-12-29T09:03:05;7.82;;;6.13;;
21661;SDS011;10992;48.170;8.596;2023-12-29T09:05:32;7.03;;;5.43;;
21661;SDS011;10992;48.170;8.596;2023-12-29T09:07:59;7.25;;;5.50;;
21661;SDS011;10992;48.170;8.596;2023-12-29T09:10:26;6.88;;;5.07;;
21661;SDS011;10992;48.170;8.596;2023-12-29T09:12:53;5.57;;;4.68;;
21661;SDS011;10992;48.170;8.596;2023-12-29T09:15:20;5.43;;;4.78;;
21661;SDS011;10992;48.170;8.596;2023-12-29T09:17:47;5.35;;;4.45;;
21661;SDS011;10992;48.170;8.596;2023-12-29T09:20:15;6.68;;;3.88;;
21661;SDS011;10992;48.170;8.596;2023-12-29T09:22:42;4.35;;;2.75;;
21661;SDS011;10992;48.170;8.596;2023-12-29T09:25:15;4.07;;;3.35;;
21661;SDS011;10992;48.170;8.596;2023-12-29T09:27:42;3.70;;;3.30;;
21661;SDS011;10992;48.170;8.596;2023-12-29T09:30:10;3.13;;;2.83;;
21661;SDS011;10992;48.170;8.596;2023-12-29T09:32:38;3.17;;;2.88;;
21661;SDS011;10992;48.170;8.596;2023-12-29T09:35:05;3.00;;;2.53;;
21661;SDS011;10992;48.170;8.596;2023-12-29T09:37:32;3.15;;;2.28;;
21661;SDS011;10992;48.170;8.596;2023-12-29T09:39:58;2.47;;;2.08;;
21661;SDS011;10992;48.170;8.596;2023-12-29T09:42:25;1.58;;;1.17;;
21661;SDS011;10992;48.170;8.596;2023-12-29T09:44:55;1.33;;;1.02;;
21661;SDS011;10992;48.170;8.596;2023-12-29T09:47:23;2.03;;;1.48;;
21661;SDS011;10992;48.170;8.596;2023-12-29T09:49:53;2.47;;;1.33;;
21661;SDS011;10992;48.170;8.596;2023-12-29T09:52:22;2.22;;;1.40;;
21661;SDS011;10992;48.170;8.596;2023-12-29T09:54:52;1.58;;;1.20;;
21661;SDS011;10992;48.170;8.596;2023-12-29T09:57:20;1.10;;;0.80;;
21661;SDS011;10992;48.170;8.596;2023-12-29T09:59:48;1.38;;;0.70;;
21661;SDS011;10992;48.170;8.596;2023-12-29T10:02:20;1.30;;;0.75;;
21661;SDS011;10992;48.170;8.596;2023-12-29T10:04:48;1.35;;;0.90;;
21661;SDS011;10992;48.170;8.596;2023-12-29T10:07:25;0.90;;;0.70;;
21661;SDS011;10992;48.170;8.596;2023-12-29T10:09:55;1.10;;;1.00;;
21661;SDS011;10992;48.170;8.596;2023-12-29T10:12:23;1.00;;;0.90;;
21661;SDS011;10992;48.170;8.596;2023-12-29T10:23:32;1.20;;;1.00;;
21661;SDS011;10992;48.170;8.596;2023-12-29T10:26:05;1.90;;;1.02;;
21661;SDS011;10992;48.170;8.596;2023-12-29T10:28:33;3.45;;;1.60;;
21661;SDS011;10992;48.170;8.596;2023-12-29T10:31:00;1.75;;;1.45;;
21661;SDS011;10992;48.170;8.596;2023-12-29T10:33:27;3.17;;;2.10;;
21661;SDS011;10992;48.170;8.596;2023-12-29T10:35:58;3.00;;;1.50;;
21661;SDS011;10992;48.170;8.596;2023-12-29T10:38:30;1.77;;;1.10;;
21661;SDS011;10992;48.170;8.596;2023-12-29T10:41:10;1.52;;;1.33;;
21661;SDS011;10992;48.170;8.596;2023-12-29T10:43:39;1.70;;;1.38;;
21661;SDS011;10992;48.170;8.596;2023-12-29T10:46:10;2.65;;;1.85;;
21661;SDS011;10992;48.170;8.596;2023-12-29T10:48:38;2.40;;;1.65;;
21661;SDS011;10992;48.170;8.596;2023-12-29T10:51:06;1.50;;;1.33;;
21661;SDS011;10992;48.170;8.596;2023-12-29T10:53:33;1.35;;;1.02;;
21661;SDS011;10992;48.170;8.596;2023-12-29T10:56:10;1.25;;;0.70;;
21661;SDS011;10992;48.170;8.596;2023-12-29T10:59:02;0.90;;;0.80;;
21661;SDS011;10992;48.170;8.596;2023-12-29T11:01:30;1.38;;;0.80;;
21661;SDS011;10992;48.170;8.596;2023-12-29T11:04:05;1.83;;;1.40;;
21661;SDS011;10992;48.170;8.596;2023-12-29T11:06:43;1.95;;;1.30;;
21661;SDS011;10992;48.170;8.596;2023-12-29T11:09:13;1.63;;;1.20;;
21661;SDS011;10992;48.170;8.596;2023-12-29T11:11:53;1.65;;;1.23;;
21661;SDS011;10992;48.170;8.596;2023-12-29T11:14:22;1.52;;;1.30;;
21661;SDS011;10992;48.170;8.596;2023-12-29T11:16:51;2.00;;;1.08;;
21661;SDS011;10992;48.170;8.596;2023-12-29T11:19:20;1.98;;;1.35;;
21661;SDS011;10992;48.170;8.596;2023-12-29T11:21:51;1.83;;;1.27;;
21661;SDS011;10992;48.170;8.596;2023-12-29T11:24:21;2.58;;;1.60;;
21661;SDS011;10992;48.170;8.596;2023-12-29T11:27:00;2.70;;;1.73;;
21661;SDS011;10992;48.170;8.596;2023-12-29T11:29:29;3.65;;;1.73;;
21661;SDS011;10992;48.170;8.596;2023-12-29T11:31:56;4.32;;;1.60;;
21661;SDS011;10992;48.170;8.596;2023-12-29T11:34:31;2.30;;;1.50;;
21661;SDS011;10992;48.170;8.596;2023-12-29T11:37:12;1.42;;;1.10;;
21661;SDS011;10992;48.170;8.596;2023-12-29T11:40:16;2.17;;;1.30;;
21661;SDS011;10992;48.170;8.596;2023-12-29T11:42:47;2.70;;;1.60;;
21661;SDS011;10992;48.170;8.596;2023-12-29T11:45:31;2.13;;;1.05;;
21661;SDS011;10992;48.170;8.596;2023-12-29T11:48:02;1.65;;;1.05;;
21661;SDS011;10992;48.170;8.596;2023-12-29T11:50:39;2.92;;;1.60;;
21661;SDS011;10992;48.170;8.596;2023-12-29T11:53:07;1.88;;;1.17;;
21661;SDS011;10992;48.170;8.596;2023-12-29T11:55:38;0.80;;;0.80;;
21661;SDS011;10992;48.170;8.596;2023-12-29T11:58:24;1.33;;;0.90;;
21661;SDS011;10992;48.170;8.596;2023-12-29T12:00:57;1.52;;;0.90;;
21661;SDS011;10992;48.170;8.596;2023-12-29T12:03:25;2.53;;;1.67;;
21661;SDS011;10992;48.170;8.596;2023-12-29T12:05:54;1.30;;;1.10;;
21661;SDS011;10992;48.170;8.596;2023-12-29T12:08:31;1.77;;;1.25;;
21661;SDS011;10992;48.170;8.596;2023-12-29T12:13:58;1.33;;;1.20;;
21661;SDS011;10992;48.170;8.596;2023-12-29T12:19:11;1.92;;;1.30;;
21661;SDS011;10992;48.170;8.596;2023-12-29T12:21:39;1.83;;;0.98;;
21661;SDS011;10992;48.170;8.596;2023-12-29T12:24:07;1.35;;;0.73;;
21661;SDS011;10992;48.170;8.596;2023-12-29T12:26:35;1.35;;;0.95;;
21661;SDS011;10992;48.170;8.596;2023-12-29T12:29:02;1.40;;;1.25;;
21661;SDS011;10992;48.170;8.596;2023-12-29T12:31:30;1.73;;;0.95;;
21661;SDS011;10992;48.170;8.596;2023-12-29T12:33:57;1.08;;;0.95;;
21661;SDS011;10992;48.170;8.596;2023-12-29T12:36:27;1.30;;;1.00;;
21661;SDS011;10992;48.170;8.596;2023-12-29T12:38:55;1.02;;;0.65;;
21661;SDS011;10992;48.170;8.596;2023-12-29T12:41:23;1.27;;;1.00;;
21661;SDS011;10992;48.170;8.596;2023-12-29T12:44:06;1.23;;;1.00;;
21661;SDS011;10992;48.170;8.596;2023-12-29T12:46:40;1.70;;;1.23;;
21661;SDS011;10992;48.170;8.596;2023-12-29T12:49:15;1.30;;;1.05;;
21661;SDS011;10992;48.170;8.596;2023-12-29T12:51:43;2.17;;;0.90;;
21661;SDS011;10992;48.170;8.596;2023-12-29T12:54:11;2.20;;;1.13;;
21661;SDS011;10992;48.170;8.596;2023-12-29T12:56:42;2.00;;;1.20;;
21661;SDS011;10992;48.170;8.596;2023-12-29T12:59:10;1.27;;;0.90;;
21661;SDS011;10992;48.170;8.596;2023-12-29T13:01:38;0.65;;;0.65;;
21661;SDS011;10992;48.170;8.596;2023-12-29T13:04:06;1.63;;;1.10;;
21661;SDS011;10992;48.170;8.596;2023-12-29T13:06:34;2.25;;;1.33;;
21661;SDS011;10992;48.170;8.596;2023-12-29T13:09:08;2.30;;;1.48;;
21661;SDS011;10992;48.170;8.596;2023-12-29T13:11:39;3.20;;;1.70;;
21661;SDS011;10992;48.170;8.596;2023-12-29T13:14:07;3.55;;;2.40;;
21661;SDS011;10992;48.170;8.596;2023-12-29T13:16:35;2.00;;;1.10;;
21661;SDS011;10992;48.170;8.596;2023-12-29T13:19:19;2.85;;;1.20;;
21661;SDS011;10992;48.170;8.596;2023-12-29T13:21:52;1.98;;;1.40;;
21661;SDS011;10992;48.170;8.596;2023-12-29T13:24:22;2.58;;;1.30;;
21661;SDS011;10992;48.170;8.596;2023-12-29T13:27:05;2.00;;;1.30;;
21661;SDS011;10992;48.170;8.596;2023-12-29T13:29:35;2.88;;;1.77;;
21661;SDS011;10992;48.170;8.596;2023-12-29T13:34:38;1.92;;;1.55;;
21661;SDS011;10992;48.170;8.596;2023-12-29T13:37:16;3.15;;;1.80;;
21661;SDS011;10992;48.170;8.596;2023-12-29T13:40:24;1.77;;;1.33;;
21661;SDS011;10992;48.170;8.596;2023-12-29T13:43:01;1.58;;;1.40;;
21661;SDS011;10992;48.170;8.596;2023-12-29T13:45:33;2.72;;;1.30;;
21661;SDS011;10992;48.170;8.596;2023-12-29T13:48:01;1.63;;;1.23;;
21661;SDS011;10992;48.170;8.596;2023-12-29T13:50:30;2.13;;;1.40;;
21661;SDS011;10992;48.170;8.596;2023-12-29T13:52:56;2.53;;;1.30;;
21661;SDS011;10992;48.170;8.596;2023-12-29T13:55:23;3.20;;;1.40;;
21661;SDS011;10992;48.170;8.596;2023-12-29T13:57:51;1.90;;;1.15;;
21661;SDS011;10992;48.170;8.596;2023-12-29T14:05:23;4.55;;;1.33;;
21661;SDS011;10992;48.170;8.596;2023-12-29T14:08:17;1.70;;;1.17;;
21661;SDS011;10992;48.170;8.596;2023-12-29T14:10:49;5.00;;;1.70;;
21661;SDS011;10992;48.170;8.596;2023-12-29T14:13:16;2.85;;;1.50;;
21661;SDS011;10992;48.170;8.596;2023-12-29T14:15:45;2.22;;;1.63;;
21661;SDS011;10992;48.170;8.596;2023-12-29T14:24:13;1.80;;;1.50;;
21661;SDS011;10992;48.170;8.596;2023-12-29T14:29:18;1.88;;;1.35;;
21661;SDS011;10992;48.170;8.596;2023-12-29T14:31:47;3.13;;;1.52;;
21661;SDS011;10992;48.170;8.596;2023-12-29T14:34:17;2.97;;;1.60;;
21661;SDS011;10992;48.170;8.596;2023-12-29T14:36:49;2.80;;;1.65;;
21661;SDS011;10992;48.170;8.596;2023-12-29T14:39:16;2.83;;;1.30;;
21661;SDS011;10992;48.170;8.596;2023-12-29T14:41:43;1.25;;;1.15;;
21661;SDS011;10992;48.170;8.596;2023-12-29T14:44:16;3.00;;;1.58;;
21661;SDS011;10992;48.170;8.596;2023-12-29T14:46:43;1.38;;;1.10;;
21661;SDS011;10992;48.170;8.596;2023-12-29T14:49:16;1.70;;;1.30;;
21661;SDS011;10992;48.170;8.596;2023-12-29T14:51:47;1.95;;;1.42;;
21661;SDS011;10992;48.170;8.596;2023-12-29T14:54:14;1.95;;;1.52;;
21661;SDS011;10992;48.170;8.596;2023-12-29T14:56:46;4.18;;;2.42;;
21661;SDS011;10992;48.170;8.596;2023-12-29T14:59:14;4.35;;;2.50;;
21661;SDS011;10992;48.170;8.596;2023-12-29T15:01:43;3.60;;;2.78;;
21661;SDS011;10992;48.170;8.596;2023-12-29T15:04:16;3.60;;;2.65;;
21661;SDS011;10992;48.170;8.596;2023-12-29T15:06:44;4.15;;;3.03;;
21661;SDS011;10992;48.170;8.596;2023-12-29T15:09:13;5.30;;;3.85;;
21661;SDS011;10992;48.170;8.596;2023-12-29T15:11:41;2.60;;;1.90;;
21661;SDS011;10992;48.170;8.596;2023-12-29T15:14:12;3.90;;;3.00;;
21661;SDS011;10992;48.170;8.596;2023-12-29T15:16:39;1.63;;;1.45;;
21661;SDS011;10992;48.170;8.596;2023-12-29T15:19:13;1.70;;;1.30;;
21661;SDS011;10992;48.170;8.596;2023-12-29T15:21:43;1.92;;;1.67;;
21661;SDS011;10992;48.170;8.596;2023-12-29T15:24:15;1.85;;;1.48;;
21661;SDS011;10992;48.170;8.596;2023-12-29T15:26:42;2.63;;;2.05;;